sensor_id;sensor_type;location;lat;lon;timestamp;pressure;altitude;pressure_sealevel;temperature;humidity
11124;BME280;5616;42.692;23.312;2023-11-19T00:00:46;95109.72;;;5.19;74.02
11124;BME280;5616;42.692;23.312;2023-11-19T00:03:13;95118.00;;;5.13;74.35
11124;BME280;5616;42.692;23.312;2023-11-19T00:05:40;95118.50;;;5.17;74.49
11124;BME280;5616;42.692;23.312;2023-11-19T00:08:08;95121.84;;;5.17;74.25
11124;BME280;5616;42.692;23.312;2023-11-19T00:10:35;95113.25;;;5.18;73.62
11124;BME280;5616;42.692;23.312;2023-11-19T00:13:02;95101.03;;;5.12;73.95
11124;BME280;5616;42.692;23.312;2023-11-19T00:15:29;95109.97;;;5.08;74.01
11124;BME280;5616;42.692;23.312;2023-11-19T00:17:56;95111.72;;;5.08;75.35
11124;BME280;5616;42.692;23.312;2023-11-19T00:20:23;95117.47;;;5.10;74.07
11124;BME280;5616;42.692;23.312;2023-11-19T00:22:50;95116.00;;;5.07;74.47
11124;BME280;5616;42.692;23.312;2023-11-19T00:25:19;95106.59;;;5.08;74.08
11124;BME280;5616;42.692;23.312;2023-11-19T00:27:47;95124.63;;;5.06;74.30
11124;BME280;5616;42.692;23.312;2023-11-19T00:30:14;95112.53;;;5.08;74.01
11124;BME280;5616;42.692;23.312;2023-11-19T00:32:41;95124.91;;;5.03;74.55
11124;BME280;5616;42.692;23.312;2023-11-19T00:35:08;95111.63;;;5.00;74.45
11124;BME280;5616;42.692;23.312;2023-11-19T00:37:36;95123.78;;;4.98;75.19
11124;BME280;5616;42.692;23.312;2023-11-19T00:40:04;95120.13;;;5.00;74.93
11124;BME280;5616;42.692;23.312;2023-11-19T00:42:32;95120.78;;;5.02;74.68
11124;BME280;5616;42.692;23.312;2023-11-19T00:44:59;95116.88;;;4.98;74.75
11124;BME280;5616;42.692;23.312;2023-11-19T00:47:26;95118.94;;;4.94;75.01
11124;BME280;5616;42.692;23.312;2023-11-19T00:49:53;95129.53;;;5.00;75.47
11124;BME280;5616;42.692;23.312;2023-11-19T00:52:20;95119.31;;;5.00;74.78
11124;BME280;5616;42.692;23.312;2023-11-19T00:54:47;95112.06;;;4.95;75.11
11124;BME280;5616;42.692;23.312;2023-11-19T00:57:14;95120.16;;;4.90;75.15
11124;BME280;5616;42.692;23.312;2023-11-19T00:59:43;95126.34;;;4.98;75.42
11124;BME280;5616;42.692;23.312;2023-11-19T01:02:10;95116.09;;;4.98;74.75
11124;BME280;5616;42.692;23.312;2023-11-19T01:04:37;95117.91;;;4.87;75.41
11124;BME280;5616;42.692;23.312;2023-11-19T01:07:04;95130.41;;;4.90;74.71
11124;BME280;5616;42.692;23.312;2023-11-19T01:09:31;95123.16;;;4.86;75.46
11124;BME280;5616;42.692;23.312;2023-11-19T01:12:00;95138.72;;;4.92;75.85
11124;BME280;5616;42.692;23.312;2023-11-19T01:14:27;95136.25;;;5.01;75.50
11124;BME280;5616;42.692;23.312;2023-11-19T01:16:56;95137.72;;;5.03;75.00
11124;BME280;5616;42.692;23.312;2023-11-19T01:19:23;95134.88;;;5.06;74.47
11124;BME280;5616;42.692;23.312;2023-11-19T01:21:50;95140.50;;;5.10;74.77
11124;BME280;5616;42.692;23.312;2023-11-19T01:24:17;95137.31;;;5.08;74.35
11124;BME280;5616;42.692;23.312;2023-11-19T01:26:44;95134.66;;;5.00;74.37
11124;BME280;5616;42.692;23.312;2023-11-19T01:29:12;95125.16;;;4.92;75.21
11124;BME280;5616;42.692;23.312;2023-11-19T01:31:40;95138.16;;;4.99;75.11
11124;BME280;5616;42.692;23.312;2023-11-19T01:34:08;95140.16;;;5.05;74.98
11124;BME280;5616;42.692;23.312;2023-11-19T01:36:37;95134.09;;;5.06;74.51
11124;BME280;5616;42.692;23.312;2023-11-19T01:39:04;95151.28;;;5.13;73.46
11124;BME280;5616;42.692;23.312;2023-11-19T01:41:34;95149.00;;;5.10;72.73
11124;BME280;5616;42.692;23.312;2023-11-19T01:44:01;95136.78;;;5.04;73.65
11124;BME280;5616;42.692;23.312;2023-11-19T01:46:28;95133.03;;;4.99;73.74
11124;BME280;5616;42.692;23.312;2023-11-19T01:48:56;95137.13;;;4.91;74.28
11124;BME280;5616;42.692;23.312;2023-11-19T01:51:24;95140.34;;;4.93;74.51
11124;BME280;5616;42.692;23.312;2023-11-19T01:53:52;95130.69;;;4.87;73.74
11124;BME280;5616;42.692;23.312;2023-11-19T01:56:20;95141.66;;;4.80;74.43
11124;BME280;5616;42.692;23.312;2023-11-19T01:58:48;95125.91;;;4.57;74.48
11124;BME280;5616;42.692;23.312;2023-11-19T02:01:16;95155.34;;;4.61;73.60
11124;BME280;5616;42.692;23.312;2023-11-19T02:03:43;95155.66;;;4.58;73.89
11124;BME280;5616;42.692;23.312;2023-11-19T02:06:10;95143.16;;;4.55;73.28
11124;BME280;5616;42.692;23.312;2023-11-19T02:08:40;95146.81;;;4.43;73.34
11124;BME280;5616;42.692;23.312;2023-11-19T02:11:07;95142.53;;;4.44;73.79
11124;BME280;5616;42.692;23.312;2023-11-19T02:13:34;95143.88;;;4.38;73.97
11124;BME280;5616;42.692;23.312;2023-11-19T02:16:02;95147.81;;;4.32;74.60
11124;BME280;5616;42.692;23.312;2023-11-19T02:18:29;95142.19;;;4.29;74.91
11124;BME280;5616;42.692;23.312;2023-11-19T02:20:56;95139.44;;;4.40;74.53
11124;BME280;5616;42.692;23.312;2023-11-19T02:23:25;95134.31;;;4.40;75.03
11124;BME280;5616;42.692;23.312;2023-11-19T02:26:12;95135.28;;;4.39;74.35
11124;BME280;5616;42.692;23.312;2023-11-19T02:28:42;95149.97;;;4.37;74.77
11124;BME280;5616;42.692;23.312;2023-11-19T02:31:09;95146.88;;;4.33;73.83
11124;BME280;5616;42.692;23.312;2023-11-19T02:33:37;95129.03;;;4.24;75.08
11124;BME280;5616;42.692;23.312;2023-11-19T02:36:04;95134.81;;;4.26;74.46
11124;BME280;5616;42.692;23.312;2023-11-19T02:38:32;95136.72;;;4.24;75.23
11124;BME280;5616;42.692;23.312;2023-11-19T02:40:59;95128.25;;;4.14;75.10
11124;BME280;5616;42.692;23.312;2023-11-19T02:43:27;95137.38;;;4.16;74.41
11124;BME280;5616;42.692;23.312;2023-11-19T02:45:59;95130.53;;;4.17;76.05
11124;BME280;5616;42.692;23.312;2023-11-19T02:48:26;95130.81;;;4.14;74.89
11124;BME280;5616;42.692;23.312;2023-11-19T02:53:41;95127.06;;;4.08;75.79
11124;BME280;5616;42.692;23.312;2023-11-19T02:56:16;95138.34;;;4.06;76.23
11124;BME280;5616;42.692;23.312;2023-11-19T02:58:50;95126.13;;;4.09;76.32
11124;BME280;5616;42.692;23.312;2023-11-19T03:01:23;95124.75;;;4.15;76.41
11124;BME280;5616;42.692;23.312;2023-11-19T03:03:55;95132.56;;;4.13;75.95
11124;BME280;5616;42.692;23.312;2023-11-19T03:06:23;95127.06;;;4.08;76.02
11124;BME280;5616;42.692;23.312;2023-11-19T03:08:50;95139.97;;;4.07;76.01
11124;BME280;5616;42.692;23.312;2023-11-19T03:11:17;95137.69;;;4.04;76.13
11124;BME280;5616;42.692;23.312;2023-11-19T03:13:44;95127.94;;;3.90;76.02
11124;BME280;5616;42.692;23.312;2023-11-19T03:16:14;95138.25;;;3.98;75.94
11124;BME280;5616;42.692;23.312;2023-11-19T03:18:43;95152.66;;;3.99;76.43
11124;BME280;5616;42.692;23.312;2023-11-19T03:21:10;95146.44;;;4.01;76.67
11124;BME280;5616;42.692;23.312;2023-11-19T03:23:37;95143.78;;;4.03;76.54
11124;BME280;5616;42.692;23.312;2023-11-19T03:26:05;95144.72;;;4.02;76.10
11124;BME280;5616;42.692;23.312;2023-11-19T03:28:33;95139.44;;;4.03;75.66
11124;BME280;5616;42.692;23.312;2023-11-19T03:31:00;95144.16;;;4.08;76.49
11124;BME280;5616;42.692;23.312;2023-11-19T03:33:27;95136.63;;;4.06;75.60
11124;BME280;5616;42.692;23.312;2023-11-19T03:35:56;95128.72;;;4.00;75.42
11124;BME280;5616;42.692;23.312;2023-11-19T03:38:23;95141.88;;;4.05;76.13
11124;BME280;5616;42.692;23.312;2023-11-19T03:40:50;95139.97;;;4.07;76.62
11124;BME280;5616;42.692;23.312;2023-11-19T03:43:17;95149.00;;;4.11;75.87
11124;BME280;5616;42.692;23.312;2023-11-19T03:45:45;95153.69;;;4.15;75.88
11124;BME280;5616;42.692;23.312;2023-11-19T03:48:13;95161.88;;;4.09;76.46
11124;BME280;5616;42.692;23.312;2023-11-19T03:50:41;95167.66;;;4.11;76.58
11124;BME280;5616;42.692;23.312;2023-11-19T03:53:11;95175.47;;;4.10;76.09
11124;BME280;5616;42.692;23.312;2023-11-19T03:55:37;95177.75;;;4.13;76.08
11124;BME280;5616;42.692;23.312;2023-11-19T03:58:04;95169.25;;;4.22;77.29
11124;BME280;5616;42.692;23.312;2023-11-19T04:00:32;95174.06;;;4.35;76.43
11124;BME280;5616;42.692;23.312;2023-11-19T04:02:59;95189.78;;;4.30;75.34
11124;BME280;5616;42.692;23.312;2023-11-19T04:05:26;95188.69;;;4.32;74.92
11124;BME280;5616;42.692;23.312;2023-11-19T04:07:52;95188.59;;;4.34;74.52
11124;BME280;5616;42.692;23.312;2023-11-19T04:10:21;95204.03;;;4.42;74.42
11124;BME280;5616;42.692;23.312;2023-11-19T04:12:48;95200.13;;;4.38;73.98
11124;BME280;5616;42.692;23.312;2023-11-19T04:15:15;95203.66;;;4.37;74.42
11124;BME280;5616;42.692;23.312;2023-11-19T04:17:42;95220.56;;;4.38;73.87
11124;BME280;5616;42.692;23.312;2023-11-19T04:20:09;95213.56;;;4.40;74.50
11124;BME280;5616;42.692;23.312;2023-11-19T04:22:38;95224.16;;;4.45;74.82
11124;BME280;5616;42.692;23.312;2023-11-19T04:25:06;95212.06;;;4.47;73.96
11124;BME280;5616;42.692;23.312;2023-11-19T04:27:34;95207.38;;;4.43;74.05
11124;BME280;5616;42.692;23.312;2023-11-19T04:30:01;95204.13;;;4.50;73.41
11124;BME280;5616;42.692;23.312;2023-11-19T04:32:29;95209.25;;;4.50;73.93
11124;BME280;5616;42.692;23.312;2023-11-19T04:34:56;95222.44;;;4.46;73.83
11124;BME280;5616;42.692;23.312;2023-11-19T04:37:22;95218.28;;;4.45;74.25
11124;BME280;5616;42.692;23.312;2023-11-19T04:39:50;95227.53;;;4.55;73.91
11124;BME280;5616;42.692;23.312;2023-11-19T04:42:16;95221.72;;;4.53;73.29
11124;BME280;5616;42.692;23.312;2023-11-19T04:44:45;95227.53;;;4.55;73.65
11124;BME280;5616;42.692;23.312;2023-11-19T04:47:12;95213.00;;;4.46;73.59
11124;BME280;5616;42.692;23.312;2023-11-19T04:49:40;95221.56;;;4.64;74.37
11124;BME280;5616;42.692;23.312;2023-11-19T04:52:08;95223.94;;;4.75;73.07
11124;BME280;5616;42.692;23.312;2023-11-19T04:54:35;95230.78;;;4.75;72.30
11124;BME280;5616;42.692;23.312;2023-11-19T04:57:02;95225.44;;;4.68;72.49
11124;BME280;5616;42.692;23.312;2023-11-19T04:59:29;95224.28;;;4.53;72.84
11124;BME280;5616;42.692;23.312;2023-11-19T05:01:57;95230.03;;;4.65;73.24
11124;BME280;5616;42.692;23.312;2023-11-19T05:04:24;95229.22;;;4.64;72.35
11124;BME280;5616;42.692;23.312;2023-11-19T05:06:51;95243.91;;;4.62;72.38
11124;BME280;5616;42.692;23.312;2023-11-19T05:09:18;95262.47;;;4.64;72.58
11124;BME280;5616;42.692;23.312;2023-11-19T05:11:44;95264.38;;;4.62;73.62
11124;BME280;5616;42.692;23.312;2023-11-19T05:14:11;95251.03;;;4.68;72.09
11124;BME280;5616;42.692;23.312;2023-11-19T05:16:39;95249.41;;;4.67;72.40
11124;BME280;5616;42.692;23.312;2023-11-19T05:19:08;95248.75;;;4.65;72.57
11124;BME280;5616;42.692;23.312;2023-11-19T05:21:35;95245.91;;;4.68;73.00
11124;BME280;5616;42.692;23.312;2023-11-19T05:24:02;95244.56;;;4.64;72.42
11124;BME280;5616;42.692;23.312;2023-11-19T05:26:30;95246.56;;;4.70;71.94
11124;BME280;5616;42.692;23.312;2023-11-19T05:28:57;95241.44;;;4.70;72.75
11124;BME280;5616;42.692;23.312;2023-11-19T05:31:24;95235.53;;;4.70;72.67
11124;BME280;5616;42.692;23.312;2023-11-19T05:33:51;95254.88;;;4.82;71.90
11124;BME280;5616;42.692;23.312;2023-11-19T05:36:19;95248.66;;;4.84;72.66
11124;BME280;5616;42.692;23.312;2023-11-19T05:38:46;95253.78;;;4.84;71.67
11124;BME280;5616;42.692;23.312;2023-11-19T05:41:13;95247.47;;;4.79;71.60
11124;BME280;5616;42.692;23.312;2023-11-19T05:43:40;95252.72;;;4.77;71.72
11124;BME280;5616;42.692;23.312;2023-11-19T05:46:07;95256.53;;;4.73;71.51
11124;BME280;5616;42.692;23.312;2023-11-19T05:48:34;95266.22;;;4.70;71.76
11124;BME280;5616;42.692;23.312;2023-11-19T05:51:01;95263.75;;;4.78;72.17
11124;BME280;5616;42.692;23.312;2023-11-19T05:53:32;95258.91;;;4.84;72.11
11124;BME280;5616;42.692;23.312;2023-11-19T05:56:02;95262.13;;;4.86;71.87
11124;BME280;5616;42.692;23.312;2023-11-19T05:58:29;95261.88;;;4.80;72.00
11124;BME280;5616;42.692;23.312;2023-11-19T06:01:00;95268.59;;;4.81;72.57
11124;BME280;5616;42.692;23.312;2023-11-19T06:03:31;95279.91;;;4.78;72.07
11124;BME280;5616;42.692;23.312;2023-11-19T06:06:00;95260.66;;;4.74;72.29
11124;BME280;5616;42.692;23.312;2023-11-19T06:08:27;95277.75;;;4.83;71.71
11124;BME280;5616;42.692;23.312;2023-11-19T06:10:56;95284.75;;;4.81;71.96
11124;BME280;5616;42.692;23.312;2023-11-19T06:13:23;95281.94;;;4.75;71.79
11124;BME280;5616;42.692;23.312;2023-11-19T06:15:54;95272.41;;;4.67;72.39
11124;BME280;5616;42.692;23.312;2023-11-19T06:18:20;95284.81;;;4.62;72.63
11124;BME280;5616;42.692;23.312;2023-11-19T06:20:48;95287.25;;;4.54;72.72
11124;BME280;5616;42.692;23.312;2023-11-19T06:23:16;95286.34;;;4.55;72.93
11124;BME280;5616;42.692;23.312;2023-11-19T06:25:43;95278.94;;;4.52;73.40
11124;BME280;5616;42.692;23.312;2023-11-19T06:28:11;95283.78;;;4.55;72.50
11124;BME280;5616;42.692;23.312;2023-11-19T06:30:38;95295.31;;;4.59;72.66
11124;BME280;5616;42.692;23.312;2023-11-19T06:33:06;95291.84;;;4.51;73.07
11124;BME280;5616;42.692;23.312;2023-11-19T06:35:33;95280.78;;;4.60;72.11
11124;BME280;5616;42.692;23.312;2023-11-19T06:38:02;95281.03;;;4.66;72.68
11124;BME280;5616;42.692;23.312;2023-11-19T06:40:29;95289.13;;;4.71;72.39
11124;BME280;5616;42.692;23.312;2023-11-19T06:42:56;95290.84;;;4.71;71.83
11124;BME280;5616;42.692;23.312;2023-11-19T06:45:24;95294.72;;;4.75;71.74
11124;BME280;5616;42.692;23.312;2023-11-19T06:47:51;95281.84;;;4.67;72.08
11124;BME280;5616;42.692;23.312;2023-11-19T06:50:18;95291.25;;;4.66;72.46
11124;BME280;5616;42.692;23.312;2023-11-19T06:52:45;95279.16;;;4.68;71.53
11124;BME280;5616;42.692;23.312;2023-11-19T06:55:12;95278.78;;;4.63;70.82
11124;BME280;5616;42.692;23.312;2023-11-19T06:57:39;95289.66;;;4.56;71.65
11124;BME280;5616;42.692;23.312;2023-11-19T07:00:07;95284.81;;;4.62;71.46
11124;BME280;5616;42.692;23.312;2023-11-19T07:02:36;95284.53;;;4.65;71.04
11124;BME280;5616;42.692;23.312;2023-11-19T07:05:03;95297.16;;;4.76;71.41
11124;BME280;5616;42.692;23.312;2023-11-19T07:07:30;95297.66;;;4.80;70.85
11124;BME280;5616;42.692;23.312;2023-11-19T07:09:58;95302.09;;;4.87;70.62
11124;BME280;5616;42.692;23.312;2023-11-19T07:12:25;95311.69;;;4.76;69.72
11124;BME280;5616;42.692;23.312;2023-11-19T07:14:52;95308.50;;;4.74;70.12
11124;BME280;5616;42.692;23.312;2023-11-19T07:17:20;95302.28;;;4.67;70.76
11124;BME280;5616;42.692;23.312;2023-11-19T07:19:50;95298.41;;;4.63;70.61
11124;BME280;5616;42.692;23.312;2023-11-19T07:22:16;95307.28;;;4.68;71.01
11124;BME280;5616;42.692;23.312;2023-11-19T07:24:44;95297.56;;;4.81;70.87
11124;BME280;5616;42.692;23.312;2023-11-19T07:27:10;95307.88;;;4.89;70.85
11124;BME280;5616;42.692;23.312;2023-11-19T07:29:38;95306.00;;;4.91;69.96
11124;BME280;5616;42.692;23.312;2023-11-19T07:32:05;95313.38;;;4.94;69.32
11124;BME280;5616;42.692;23.312;2023-11-19T07:34:34;95325.91;;;4.98;69.13
11124;BME280;5616;42.692;23.312;2023-11-19T07:37:02;95322.34;;;4.71;69.95
11124;BME280;5616;42.692;23.312;2023-11-19T07:39:30;95317.16;;;4.90;69.69
11124;BME280;5616;42.692;23.312;2023-11-19T07:41:56;95325.03;;;5.07;70.04
11124;BME280;5616;42.692;23.312;2023-11-19T07:44:24;95326.09;;;5.14;69.25
11124;BME280;5616;42.692;23.312;2023-11-19T07:46:51;95323.97;;;5.09;68.66
11124;BME280;5616;42.692;23.312;2023-11-19T07:49:18;95311.53;;;5.14;68.63
11124;BME280;5616;42.692;23.312;2023-11-19T07:51:45;95312.72;;;5.20;68.60
11124;BME280;5616;42.692;23.312;2023-11-19T07:54:13;95321.44;;;5.54;79.50
11124;BME280;5616;42.692;23.312;2023-11-19T07:56:40;95319.94;;;5.34;67.79
11124;BME280;5616;42.692;23.312;2023-11-19T07:59:07;95331.19;;;5.23;68.57
11124;BME280;5616;42.692;23.312;2023-11-19T08:01:34;95316.91;;;5.21;68.37
11124;BME280;5616;42.692;23.312;2023-11-19T08:04:01;95338.03;;;5.23;69.06
11124;BME280;5616;42.692;23.312;2023-11-19T08:06:28;95337.75;;;5.26;68.37
11124;BME280;5616;42.692;23.312;2023-11-19T08:08:55;95342.63;;;5.19;68.00
11124;BME280;5616;42.692;23.312;2023-11-19T08:11:23;95335.31;;;5.24;67.68
11124;BME280;5616;42.692;23.312;2023-11-19T08:13:50;95343.94;;;5.06;68.16
11124;BME280;5616;42.692;23.312;2023-11-19T08:16:17;95361.41;;;5.10;69.06
11124;BME280;5616;42.692;23.312;2023-11-19T08:18:43;95335.75;;;5.20;68.01
11124;BME280;5616;42.692;23.312;2023-11-19T08:21:10;95344.09;;;5.22;67.95
11124;BME280;5616;42.692;23.312;2023-11-19T08:23:37;95357.06;;;5.20;68.06
11124;BME280;5616;42.692;23.312;2023-11-19T08:26:04;95348.72;;;5.09;68.16
11124;BME280;5616;42.692;23.312;2023-11-19T08:28:33;95357.13;;;5.01;67.83
11124;BME280;5616;42.692;23.312;2023-11-19T08:31:00;95370.19;;;4.98;67.93
11124;BME280;5616;42.692;23.312;2023-11-19T08:33:28;95353.25;;;4.97;68.22
11124;BME280;5616;42.692;23.312;2023-11-19T08:35:55;95357.66;;;5.05;68.34
11124;BME280;5616;42.692;23.312;2023-11-19T08:38:22;95370.19;;;5.08;68.17
11124;BME280;5616;42.692;23.312;2023-11-19T08:40:49;95377.69;;;5.19;68.16
11124;BME280;5616;42.692;23.312;2023-11-19T08:43:16;95380.31;;;5.27;68.24
11124;BME280;5616;42.692;23.312;2023-11-19T08:45:44;95377.34;;;5.31;67.76
11124;BME280;5616;42.692;23.312;2023-11-19T08:48:11;95373.56;;;5.35;67.66
11124;BME280;5616;42.692;23.312;2023-11-19T08:50:37;95360.84;;;5.43;66.68
11124;BME280;5616;42.692;23.312;2023-11-19T08:53:04;95364.31;;;5.52;67.06
11124;BME280;5616;42.692;23.312;2023-11-19T08:55:32;95377.88;;;5.62;65.92
11124;BME280;5616;42.692;23.312;2023-11-19T08:57:59;95375.47;;;5.61;64.72
11124;BME280;5616;42.692;23.312;2023-11-19T09:00:26;95378.16;;;5.59;66.19
11124;BME280;5616;42.692;23.312;2023-11-19T09:02:54;95376.88;;;5.73;65.60
11124;BME280;5616;42.692;23.312;2023-11-19T09:05:21;95369.44;;;5.79;65.56
11124;BME280;5616;42.692;23.312;2023-11-19T09:07:48;95355.84;;;5.96;64.94
11124;BME280;5616;42.692;23.312;2023-11-19T09:10:15;95355.47;;;6.09;64.41
11124;BME280;5616;42.692;23.312;2023-11-19T09:12:42;95351.38;;;6.16;64.43
11124;BME280;5616;42.692;23.312;2023-11-19T09:15:09;95349.16;;;6.03;65.01
11124;BME280;5616;42.692;23.312;2023-11-19T09:17:37;95342.16;;;6.05;64.55
11124;BME280;5616;42.692;23.312;2023-11-19T09:20:06;95352.88;;;5.74;65.82
11124;BME280;5616;42.692;23.312;2023-11-19T09:22:34;95353.72;;;5.65;64.33
11124;BME280;5616;42.692;23.312;2023-11-19T09:25:01;95358.63;;;5.58;66.38
11124;BME280;5616;42.692;23.312;2023-11-19T09:27:27;95369.16;;;5.55;66.46
11124;BME280;5616;42.692;23.312;2023-11-19T09:29:54;95374.50;;;5.62;66.49
11124;BME280;5616;42.692;23.312;2023-11-19T09:32:24;95367.25;;;5.57;66.22
11124;BME280;5616;42.692;23.312;2023-11-19T09:34:50;95341.41;;;5.50;66.53
11124;BME280;5616;42.692;23.312;2023-11-19T09:37:19;95349.16;;;5.58;65.93
11124;BME280;5616;42.692;23.312;2023-11-19T09:39:46;95344.38;;;5.46;65.86
11124;BME280;5616;42.692;23.312;2023-11-19T09:42:12;95325.91;;;5.52;66.05
11124;BME280;5616;42.692;23.312;2023-11-19T09:44:44;95329.94;;;5.54;66.23
11124;BME280;5616;42.692;23.312;2023-11-19T09:47:11;95330.22;;;5.69;66.08
11124;BME280;5616;42.692;23.312;2023-11-19T09:49:41;95314.66;;;5.80;64.82
11124;BME280;5616;42.692;23.312;2023-11-19T09:52:08;95298.25;;;5.73;66.27
11124;BME280;5616;42.692;23.312;2023-11-19T09:54:36;95292.03;;;5.76;64.66
11124;BME280;5616;42.692;23.312;2023-11-19T09:57:04;95292.25;;;5.82;65.36
11124;BME280;5616;42.692;23.312;2023-11-19T09:59:33;95302.47;;;5.92;65.31
11124;BME280;5616;42.692;23.312;2023-11-19T10:02:00;95296.81;;;5.88;63.67
11124;BME280;5616;42.692;23.312;2023-11-19T10:04:30;95293.72;;;5.67;64.74
11124;BME280;5616;42.692;23.312;2023-11-19T10:06:59;95300.94;;;5.72;64.46
11124;BME280;5616;42.692;23.312;2023-11-19T10:09:26;95289.13;;;5.71;65.17
11124;BME280;5616;42.692;23.312;2023-11-19T10:11:54;95297.97;;;5.76;65.67
11124;BME280;5616;42.692;23.312;2023-11-19T10:14:23;95291.50;;;5.72;65.35
11124;BME280;5616;42.692;23.312;2023-11-19T10:16:50;95289.94;;;5.71;65.93
11124;BME280;5616;42.692;23.312;2023-11-19T10:19:20;95288.06;;;5.46;66.19
11124;BME280;5616;42.692;23.312;2023-11-19T10:21:47;95304.31;;;5.72;65.36
11124;BME280;5616;42.692;23.312;2023-11-19T10:24:14;95304.13;;;5.83;64.57
11124;BME280;5616;42.692;23.312;2023-11-19T10:26:41;95304.13;;;5.83;65.28
11124;BME280;5616;42.692;23.312;2023-11-19T10:29:12;95290.50;;;5.83;64.96
11124;BME280;5616;42.692;23.312;2023-11-19T10:31:39;95291.69;;;5.88;65.16
11124;BME280;5616;42.692;23.312;2023-11-19T10:34:24;95283.78;;;5.99;64.96
11124;BME280;5616;42.692;23.312;2023-11-19T10:36:51;95272.34;;;6.11;64.35
11124;BME280;5616;42.692;23.312;2023-11-19T10:39:18;95284.50;;;6.09;63.67
11124;BME280;5616;42.692;23.312;2023-11-19T10:41:46;95285.97;;;6.12;63.27
11124;BME280;5616;42.692;23.312;2023-11-19T10:44:31;95295.97;;;5.97;64.78
11124;BME280;5616;42.692;23.312;2023-11-19T10:46:59;95283.34;;;6.04;63.66
11124;BME280;5616;42.692;23.312;2023-11-19T10:49:26;95277.72;;;6.00;63.37
11124;BME280;5616;42.692;23.312;2023-11-19T10:51:53;95285.78;;;6.05;64.43
11124;BME280;5616;42.692;23.312;2023-11-19T10:54:23;95291.56;;;6.07;64.68
11124;BME280;5616;42.692;23.312;2023-11-19T10:56:55;95280.66;;;6.05;63.88
11124;BME280;5616;42.692;23.312;2023-11-19T10:59:23;95273.16;;;6.12;63.63
11124;BME280;5616;42.692;23.312;2023-11-19T11:01:53;95278.88;;;6.24;63.94
11124;BME280;5616;42.692;23.312;2023-11-19T11:04:23;95267.34;;;6.28;64.22
11124;BME280;5616;42.692;23.312;2023-11-19T11:06:50;95258.00;;;6.19;64.68
11124;BME280;5616;42.692;23.312;2023-11-19T11:09:17;95244.06;;;6.21;64.31
11124;BME280;5616;42.692;23.312;2023-11-19T11:11:46;95237.50;;;6.19;63.75
11124;BME280;5616;42.692;23.312;2023-11-19T11:14:14;95240.47;;;6.14;64.42
11124;BME280;5616;42.692;23.312;2023-11-19T11:16:44;95238.38;;;6.35;62.92
11124;BME280;5616;42.692;23.312;2023-11-19T11:19:12;95245.81;;;6.46;62.84
11124;BME280;5616;42.692;23.312;2023-11-19T11:21:42;95237.53;;;6.52;62.11
11124;BME280;5616;42.692;23.312;2023-11-19T11:24:28;95234.75;;;6.46;63.04
11124;BME280;5616;42.692;23.312;2023-11-19T11:27:25;95241.25;;;6.58;62.54
11124;BME280;5616;42.692;23.312;2023-11-19T11:30:04;95235.78;;;6.53;62.28
11124;BME280;5616;42.692;23.312;2023-11-19T11:32:43;95235.44;;;6.56;63.83
11124;BME280;5616;42.692;23.312;2023-11-19T11:35:22;95232.31;;;6.70;61.84
11124;BME280;5616;42.692;23.312;2023-11-19T11:37:56;95218.19;;;6.66;61.56
11124;BME280;5616;42.692;23.312;2023-11-19T11:40:27;95229.97;;;6.76;61.86
11124;BME280;5616;42.692;23.312;2023-11-19T11:42:53;95214.56;;;6.76;60.61
11124;BME280;5616;42.692;23.312;2023-11-19T11:45:35;95213.94;;;6.83;61.61
11124;BME280;5616;42.692;23.312;2023-11-19T11:48:11;95210.03;;;6.70;60.99
11124;BME280;5616;42.692;23.312;2023-11-19T11:50:49;95199.16;;;6.76;63.04
11124;BME280;5616;42.692;23.312;2023-11-19T11:53:17;95213.00;;;6.92;60.90
11124;BME280;5616;42.692;23.312;2023-11-19T11:55:57;95203.22;;;6.87;61.56
11124;BME280;5616;42.692;23.312;2023-11-19T11:58:32;95212.22;;;6.99;61.10
11124;BME280;5616;42.692;23.312;2023-11-19T12:01:04;95210.94;;;6.95;61.26
11124;BME280;5616;42.692;23.312;2023-11-19T12:03:33;95213.09;;;7.16;59.47
11124;BME280;5616;42.692;23.312;2023-11-19T12:06:00;95211.19;;;7.26;60.98
11124;BME280;5616;42.692;23.312;2023-11-19T12:08:29;95210.41;;;7.33;61.65
11124;BME280;5616;42.692;23.312;2023-11-19T12:10:58;95206.22;;;7.32;60.31
11124;BME280;5616;42.692;23.312;2023-11-19T12:13:43;95200.16;;;7.42;61.07
11124;BME280;5616;42.692;23.312;2023-11-19T12:16:13;95196.44;;;7.44;59.97
11124;BME280;5616;42.692;23.312;2023-11-19T12:18:41;95196.28;;;7.46;60.57
11124;BME280;5616;42.692;23.312;2023-11-19T12:21:07;95189.56;;;7.61;60.60
11124;BME280;5616;42.692;23.312;2023-11-19T12:23:44;95183.75;;;7.59;61.21
11124;BME280;5616;42.692;23.312;2023-11-19T12:26:35;95177.69;;;7.68;60.51
11124;BME280;5616;42.692;23.312;2023-11-19T12:29:03;95174.78;;;7.63;59.95
11124;BME280;5616;42.692;23.312;2023-11-19T12:31:34;95174.31;;;7.67;59.70
11124;BME280;5616;42.692;23.312;2023-11-19T12:34:09;95166.13;;;7.64;60.39
11124;BME280;5616;42.692;23.312;2023-11-19T12:36:40;95164.66;;;7.61;59.36
11124;BME280;5616;42.692;23.312;2023-11-19T12:39:07;95166.44;;;7.61;61.92
11124;BME280;5616;42.692;23.312;2023-11-19T12:41:53;95171.25;;;7.56;60.64
11124;BME280;5616;42.692;23.312;2023-11-19T12:44:21;95163.53;;;7.39;61.84
11124;BME280;5616;42.692;23.312;2023-11-19T12:46:59;95159.84;;;7.50;61.94
11124;BME280;5616;42.692;23.312;2023-11-19T12:49:28;95154.53;;;7.44;61.68
11124;BME280;5616;42.692;23.312;2023-11-19T12:51:55;95156.97;;;7.37;61.39
11124;BME280;5616;42.692;23.312;2023-11-19T12:54:32;95151.97;;;7.44;61.06
11124;BME280;5616;42.692;23.312;2023-11-19T12:56:59;95155.00;;;7.31;62.73
11124;BME280;5616;42.692;23.312;2023-11-19T12:59:26;95144.44;;;7.34;62.41
11124;BME280;5616;42.692;23.312;2023-11-19T13:01:56;95143.44;;;7.27;62.72
11124;BME280;5616;42.692;23.312;2023-11-19T13:04:29;95136.56;;;7.44;62.59
11124;BME280;5616;42.692;23.312;2023-11-19T13:06:57;95146.69;;;7.45;61.98
11124;BME280;5616;42.692;23.312;2023-11-19T13:09:24;95142.34;;;7.46;61.16
11124;BME280;5616;42.692;23.312;2023-11-19T13:11:52;95138.81;;;7.47;61.40
11124;BME280;5616;42.692;23.312;2023-11-19T13:14:20;95141.06;;;7.33;62.18
11124;BME280;5616;42.692;23.312;2023-11-19T13:16:47;95147.81;;;7.34;62.79
11124;BME280;5616;42.692;23.312;2023-11-19T13:19:14;95146.00;;;7.35;62.18